createdAt,value
2018-12-29T00:01:45.633Z,14.07
2018-12-29T00:04:13.969Z,12.28
2018-12-29T00:06:42.410Z,15.38
2018-12-29T00:09:10.758Z,14.40
2018-12-29T00:11:39.220Z,12.75
2018-12-29T00:14:07.667Z,9.73
2018-12-29T00:16:36.102Z,10.35
2018-12-29T00:19:04.550Z,10.65
2018-12-29T00:21:33.551Z,9.65
2018-12-29T00:24:02.087Z,11.70
2018-12-29T00:26:30.435Z,10.68
2018-12-29T00:28:58.775Z,11.97
2018-12-29T00:31:27.125Z,13.20
2018-12-29T00:33:55.471Z,11.90
2018-12-29T00:36:23.822Z,11.90
2018-12-29T00:38:53.056Z,12.33
2018-12-29T00:41:21.499Z,12.28
2018-12-29T00:43:49.849Z,13.65
2018-12-29T00:46:18.305Z,14.40
2018-12-29T00:48:47.039Z,13.20
2018-12-29T00:51:15.390Z,12.55
2018-12-29T00:53:43.872Z,12.60
2018-12-29T00:56:12.302Z,11.95
2018-12-29T00:58:40.747Z,11.78
2018-12-29T01:01:11.079Z,11.70
2018-12-29T01:03:39.581Z,9.93
2018-12-29T01:06:09.606Z,13.08
2018-12-29T01:08:38.053Z,11.50
2018-12-29T01:11:07.339Z,11.40
2018-12-29T01:13:35.761Z,12.23
2018-12-29T01:16:04.086Z,13.38
2018-12-29T01:18:32.427Z,11.45
2018-12-29T01:21:00.879Z,12.75
2018-12-29T01:23:29.371Z,11.18
2018-12-29T01:25:57.720Z,11.95
2018-12-29T01:28:26.646Z,10.05
2018-12-29T01:30:55.095Z,10.88
2018-12-29T01:33:23.423Z,9.58
2018-12-29T01:35:51.768Z,10.05
2018-12-29T01:38:20.207Z,10.40
2018-12-29T01:40:48.643Z,10.60
2018-12-29T01:43:17.633Z,11.65
2018-12-29T01:45:46.064Z,11.57
2018-12-29T01:48:14.406Z,11.40
2018-12-29T01:50:42.748Z,12.10
2018-12-29T01:53:11.257Z,11.30
2018-12-29T01:55:39.688Z,11.60
2018-12-29T01:58:08.033Z,12.78
2018-12-29T02:00:36.494Z,12.55
2018-12-29T02:03:04.934Z,14.20
2018-12-29T02:05:33.278Z,12.18
2018-12-29T02:08:01.610Z,11.57
2018-12-29T02:10:30.055Z,13.50
2018-12-29T02:12:58.553Z,11.55
2018-12-29T02:15:27.008Z,11.97
2018-12-29T02:17:55.438Z,11.70
2018-12-29T02:20:23.786Z,12.65
2018-12-29T02:22:52.196Z,10.25
2018-12-29T02:25:21.936Z,11.03
2018-12-29T02:27:52.075Z,9.73
2018-12-29T02:30:20.509Z,11.48
2018-12-29T02:32:49.057Z,12.10
2018-12-29T02:35:17.390Z,10.20
2018-12-29T02:37:46.349Z,10.28
2018-12-29T02:40:14.671Z,9.78
2018-12-29T02:42:43.234Z,9.33
2018-12-29T02:45:11.566Z,9.20
2018-12-29T02:47:41.688Z,9.70
2018-12-29T02:50:10.141Z,10.45
2018-12-29T02:52:38.576Z,9.30
2018-12-29T02:55:08.723Z,10.15
2018-12-29T02:57:37.255Z,10.00
2018-12-29T03:00:05.767Z,12.33
2018-12-29T03:02:35.157Z,10.63
2018-12-29T03:05:04.117Z,11.80
2018-12-29T03:07:32.444Z,10.68
2018-12-29T03:10:00.775Z,9.60
2018-12-29T03:12:29.178Z,10.90
2018-12-29T03:14:57.918Z,12.35
2018-12-29T03:17:26.263Z,10.98
2018-12-29T03:19:54.898Z,12.43
2018-12-29T03:22:23.446Z,10.68
2018-12-29T03:24:51.761Z,11.18
2018-12-29T03:27:20.205Z,10.70
2018-12-29T03:29:48.639Z,10.88
2018-12-29T03:32:17.164Z,12.00
2018-12-29T03:34:45.695Z,12.78
2018-12-29T03:37:14.039Z,13.83
2018-12-29T03:39:44.161Z,12.98
2018-12-29T03:42:14.350Z,11.83
2018-12-29T03:44:43.994Z,14.03
2018-12-29T03:47:13.332Z,13.45
2018-12-29T03:49:41.779Z,14.00
2018-12-29T03:52:10.221Z,14.53
2018-12-29T03:54:38.659Z,13.48
2018-12-29T03:57:07.188Z,13.93
2018-12-29T03:59:35.627Z,15.55
2018-12-29T04:02:04.004Z,12.63
2018-12-29T04:04:34.054Z,13.03
2018-12-29T04:07:02.383Z,15.35
2018-12-29T04:09:37.512Z,13.25
2018-12-29T04:12:21.410Z,13.25
2018-12-29T04:14:49.800Z,14.03
2018-12-29T04:17:18.143Z,13.88
2018-12-29T04:19:46.480Z,14.18
2018-12-29T04:22:15.039Z,14.80
2018-12-29T04:24:45.178Z,15.13
2018-12-29T04:27:13.519Z,15.30
2018-12-29T04:29:43.639Z,14.68
2018-12-29T04:32:12.035Z,15.30
2018-12-29T04:34:42.176Z,16.05
2018-12-29T04:37:10.620Z,15.13
2018-12-29T04:39:38.964Z,15.80
2018-12-29T04:42:07.687Z,13.70
2018-12-29T04:44:36.059Z,15.13
2018-12-29T04:47:04.598Z,14.78
2018-12-29T04:49:34.145Z,14.28
2018-12-29T04:52:02.605Z,13.65
2018-12-29T04:54:32.744Z,13.53
2018-12-29T04:57:01.787Z,14.25
2018-12-29T04:59:30.210Z,15.08
2018-12-29T05:01:58.587Z,14.38
2018-12-29T05:04:28.027Z,13.88
2018-12-29T05:06:56.806Z,15.35
2018-12-29T05:09:25.336Z,14.40
2018-12-29T05:11:53.779Z,14.73
2018-12-29T05:14:22.208Z,16.37
2018-12-29T05:16:50.558Z,15.10
2018-12-29T05:19:18.987Z,17.52
2018-12-29T05:21:47.391Z,18.20
2018-12-29T05:24:17.027Z,15.53
2018-12-29T05:26:45.362Z,16.30
2018-12-29T05:29:13.806Z,17.57
2018-12-29T05:31:42.331Z,19.40
2018-12-29T05:34:10.678Z,21.42
2018-12-29T05:36:39.121Z,19.35
2018-12-29T05:39:07.552Z,16.70
2018-12-29T05:41:36.015Z,16.00
2018-12-29T05:44:04.449Z,14.90
2018-12-29T05:46:32.894Z,16.35
2018-12-29T05:49:01.328Z,17.17
2018-12-29T05:51:29.680Z,21.15
2018-12-29T05:53:58.208Z,19.73
2018-12-29T05:56:26.643Z,21.60
2018-12-29T05:58:55.092Z,20.00
2018-12-29T06:01:23.480Z,18.67
2018-12-29T06:03:51.873Z,17.85
2018-12-29T06:06:20.206Z,19.20
2018-12-29T06:08:48.652Z,20.48
2018-12-29T06:11:18.085Z,21.75
2018-12-29T06:13:48.262Z,17.85
2018-12-29T06:16:16.586Z,17.32
2018-12-29T06:18:45.040Z,17.45
2018-12-29T06:21:13.487Z,18.57
2018-12-29T06:23:41.939Z,17.20
2018-12-29T06:26:10.279Z,18.07
2018-12-29T06:28:38.624Z,18.25
2018-12-29T06:31:07.052Z,17.00
2018-12-29T06:33:35.383Z,18.00
2018-12-29T06:36:03.827Z,18.02
2018-12-29T06:38:32.160Z,18.30
2018-12-29T06:41:02.299Z,16.85
2018-12-29T06:43:30.811Z,15.00
2018-12-29T06:45:59.164Z,15.68
2018-12-29T06:48:27.490Z,14.70
2018-12-29T06:50:55.951Z,16.90
2018-12-29T06:53:24.325Z,15.78
2018-12-29T06:55:52.753Z,16.62
2018-12-29T06:58:21.101Z,15.60
2018-12-29T07:00:49.638Z,14.98
2018-12-29T07:03:19.008Z,16.37
2018-12-29T07:05:47.438Z,16.27
2018-12-29T07:08:15.763Z,15.55
2018-12-29T07:10:44.112Z,16.62
2018-12-29T07:13:12.615Z,15.95
2018-12-29T07:15:40.960Z,16.48
2018-12-29T07:18:09.407Z,15.53
2018-12-29T07:20:37.879Z,17.77
2018-12-29T07:23:06.450Z,17.27
2018-12-29T07:25:36.595Z,18.75
2018-12-29T07:28:04.943Z,17.12
2018-12-29T07:30:33.443Z,16.10
2018-12-29T07:33:01.899Z,16.20
2018-12-29T07:35:31.454Z,18.87
2018-12-29T07:37:59.889Z,17.90
2018-12-29T07:40:28.349Z,17.80
2018-12-29T07:42:57.439Z,17.02
2018-12-29T07:45:26.408Z,18.77
2018-12-29T07:47:54.776Z,19.17
2018-12-29T07:50:23.107Z,17.35
2018-12-29T07:52:51.602Z,18.80
2018-12-29T07:55:20.762Z,19.00
2018-12-29T07:57:49.115Z,20.88
2018-12-29T08:00:26.471Z,17.95
2018-12-29T08:02:56.267Z,19.60
2018-12-29T08:05:24.716Z,19.55
2018-12-29T08:07:53.148Z,20.75
2018-12-29T08:10:21.480Z,20.20
2018-12-29T08:12:49.886Z,19.52
2018-12-29T08:15:18.294Z,20.10
2018-12-29T08:17:46.738Z,19.65
2018-12-29T08:20:15.184Z,20.15
2018-12-29T08:22:43.536Z,23.00
2018-12-29T08:25:11.986Z,23.57
2018-12-29T08:27:41.417Z,21.65
2018-12-29T08:30:09.862Z,20.68
2018-12-29T08:32:38.372Z,20.37
2018-12-29T08:35:06.807Z,22.77
2018-12-29T08:37:35.142Z,26.20
2018-12-29T08:40:03.717Z,23.27
2018-12-29T08:42:32.354Z,22.37
2018-12-29T08:45:00.880Z,21.52
2018-12-29T08:47:29.743Z,21.17
2018-12-29T08:49:58.271Z,19.07
2018-12-29T08:52:26.803Z,19.30
2018-12-29T08:54:55.340Z,18.90
2018-12-29T08:57:23.777Z,18.05
2018-12-29T08:59:52.124Z,17.20
2018-12-29T09:02:20.698Z,15.93
2018-12-29T09:04:50.851Z,16.75
2018-12-29T09:07:19.182Z,15.70
2018-12-29T09:09:47.532Z,15.32
2018-12-29T09:12:15.951Z,13.45
2018-12-29T09:14:44.805Z,14.15
2018-12-29T09:17:13.244Z,14.65
2018-12-29T09:19:42.388Z,14.93
2018-12-29T09:22:10.843Z,15.68
2018-12-29T09:24:40.235Z,15.08
2018-12-29T09:27:08.684Z,14.80
2018-12-29T09:29:37.024Z,13.78
2018-12-29T09:32:08.248Z,14.83
2018-12-29T09:34:36.586Z,15.80
2018-12-29T09:37:04.932Z,14.85
2018-12-29T09:39:34.784Z,14.00
2018-12-29T09:42:03.317Z,12.95
2018-12-29T09:44:31.661Z,13.00
2018-12-29T09:47:01.895Z,11.28
2018-12-29T09:49:30.336Z,16.90
2018-12-29T09:51:58.750Z,11.83
2018-12-29T09:54:27.228Z,10.30
2018-12-29T09:56:55.662Z,10.20
2018-12-29T09:59:26.670Z,11.15
2018-12-29T10:01:55.204Z,14.20
2018-12-29T10:04:23.765Z,14.35
2018-12-29T10:06:53.291Z,14.20
2018-12-29T10:09:21.643Z,14.18
2018-12-29T10:11:50.168Z,15.35
2018-12-29T10:14:18.771Z,15.60
2018-12-29T10:16:47.234Z,16.10
2018-12-29T10:19:15.576Z,17.45
2018-12-29T10:21:44.031Z,16.37
2018-12-29T10:24:12.475Z,16.57
2018-12-29T10:26:40.935Z,17.53
2018-12-29T10:29:09.276Z,15.98
2018-12-29T10:31:38.131Z,16.10
2018-12-29T10:34:06.573Z,15.37
2018-12-29T10:36:35.141Z,15.90
2018-12-29T10:39:06.937Z,15.77
2018-12-29T10:41:35.467Z,16.50
2018-12-29T10:44:04.049Z,15.17
2018-12-29T10:46:32.568Z,17.77
2018-12-29T10:49:01.021Z,16.07
2018-12-29T10:51:29.370Z,16.80
2018-12-29T10:53:57.814Z,15.87
2018-12-29T10:56:26.164Z,15.87
2018-12-29T10:58:55.111Z,15.40
2018-12-29T11:01:23.567Z,14.00
2018-12-29T11:03:51.945Z,15.37
2018-12-29T11:06:21.197Z,15.13
2018-12-29T11:08:49.648Z,17.93
2018-12-29T11:11:18.096Z,17.83
2018-12-29T11:13:46.601Z,15.80
2018-12-29T11:16:21.159Z,15.40
2018-12-29T11:18:49.707Z,16.07
2018-12-29T11:21:18.052Z,17.33
2018-12-29T11:23:48.226Z,16.17
2018-12-29T11:26:16.568Z,15.47
2018-12-29T11:28:45.978Z,16.80
2018-12-29T11:31:16.014Z,17.57
2018-12-29T11:33:44.516Z,19.23
2018-12-29T11:36:12.992Z,20.00
2018-12-29T11:38:42.277Z,21.20
2018-12-29T11:41:10.733Z,19.47
2018-12-29T11:43:39.187Z,19.43
2018-12-29T11:46:07.566Z,18.73
2018-12-29T11:48:35.912Z,18.37
2018-12-29T11:51:05.469Z,19.20
2018-12-29T11:53:33.976Z,19.60
2018-12-29T11:56:04.137Z,19.20
2018-12-29T11:58:32.601Z,20.97
2018-12-29T12:01:00.964Z,23.17
2018-12-29T12:03:29.422Z,23.37
2018-12-29T12:05:58.029Z,21.90
2018-12-29T12:08:26.503Z,24.40
2018-12-29T12:10:54.868Z,21.80
2018-12-29T12:13:23.401Z,24.03
2018-12-29T12:15:52.751Z,21.53
2018-12-29T12:18:21.104Z,21.90
2018-12-29T12:20:52.517Z,20.07
2018-12-29T12:23:21.203Z,20.80
2018-12-29T12:25:49.549Z,18.50
2018-12-29T12:28:18.183Z,18.80
2018-12-29T12:30:48.323Z,17.83
2018-12-29T12:33:17.189Z,17.97
2018-12-29T12:35:45.664Z,17.60
2018-12-29T12:38:14.944Z,17.70
2018-12-29T12:40:43.514Z,18.23
2018-12-29T12:43:12.324Z,17.97
2018-12-29T12:45:41.178Z,18.57
2018-12-29T12:48:09.614Z,18.53
2018-12-29T12:50:38.172Z,18.17
2018-12-29T12:53:06.829Z,18.57
2018-12-29T12:55:35.690Z,18.53
2018-12-29T12:58:06.632Z,19.27
2018-12-29T13:00:35.300Z,18.93
2018-12-29T13:03:04.265Z,19.27
2018-12-29T13:05:32.635Z,20.70
2018-12-29T13:08:01.229Z,18.57
2018-12-29T13:10:29.636Z,18.10
2018-12-29T13:12:58.184Z,19.20
2018-12-29T13:15:27.116Z,19.10
2018-12-29T13:17:55.524Z,19.67
2018-12-29T13:20:23.883Z,17.90
2018-12-29T13:22:52.311Z,17.90
2018-12-29T13:25:22.475Z,19.93
2018-12-29T13:27:50.920Z,19.77
2018-12-29T13:30:19.377Z,19.93
2018-12-29T13:32:48.178Z,19.70
2018-12-29T13:35:17.219Z,19.17
2018-12-29T13:37:46.163Z,18.53
2018-12-29T13:40:14.615Z,19.20
2018-12-29T13:42:43.052Z,20.10
2018-12-29T13:45:11.888Z,21.00
2018-12-29T13:47:40.331Z,20.67
2018-12-29T13:50:08.779Z,20.10
2018-12-29T13:52:37.980Z,18.63
2018-12-29T13:55:06.429Z,20.47
2018-12-29T13:57:35.067Z,18.97
2018-12-29T14:00:03.846Z,19.10
2018-12-29T14:02:34.018Z,19.27
2018-12-29T14:05:02.474Z,19.60
2018-12-29T14:07:30.814Z,18.83
2018-12-29T14:09:59.264Z,19.43
2018-12-29T14:12:27.743Z,18.67
2018-12-29T14:14:56.091Z,18.67
2018-12-29T14:17:24.531Z,20.10
2018-12-29T14:19:54.667Z,18.83
2018-12-29T14:22:23.347Z,20.53
2018-12-29T14:24:51.695Z,20.70
2018-12-29T14:27:20.054Z,19.60
2018-12-29T14:29:48.391Z,19.43
2018-12-29T14:32:16.867Z,22.93
2018-12-29T14:34:45.324Z,23.33
2018-12-29T14:37:15.579Z,22.93
2018-12-29T14:39:45.533Z,22.63
2018-12-29T14:42:13.951Z,21.10
2018-12-29T14:44:42.313Z,21.80
2018-12-29T14:47:10.773Z,21.43
2018-12-29T14:49:39.127Z,24.23
2018-12-29T14:52:07.637Z,23.37
2018-12-29T14:54:35.989Z,21.63
2018-12-29T14:57:05.028Z,20.17
2018-12-29T14:59:33.479Z,19.07
2018-12-29T15:02:02.184Z,22.10
2018-12-29T15:04:32.584Z,21.30
2018-12-29T15:07:01.472Z,20.93
2018-12-29T15:09:32.121Z,21.73
2018-12-29T15:12:00.868Z,20.63
2018-12-29T15:14:29.496Z,20.50
2018-12-29T15:16:59.656Z,22.70
2018-12-29T15:19:28.207Z,23.00
2018-12-29T15:21:56.760Z,22.63
2018-12-29T15:24:25.363Z,20.20
2018-12-29T15:26:54.099Z,22.27
2018-12-29T15:29:23.043Z,22.10
2018-12-29T15:31:51.729Z,22.83
2018-12-29T15:34:20.530Z,22.60
2018-12-29T15:36:49.264Z,22.07
2018-12-29T15:39:17.841Z,23.30
2018-12-29T15:41:46.928Z,21.70
2018-12-29T15:44:15.850Z,21.97
2018-12-29T15:46:45.744Z,21.40
2018-12-29T15:49:15.431Z,22.48
2018-12-29T15:51:43.952Z,22.17
2018-12-29T15:54:13.738Z,24.90
2018-12-29T15:56:42.964Z,24.00
2018-12-29T15:59:14.735Z,23.85
2018-12-29T16:01:45.565Z,22.30
2018-12-29T16:04:14.379Z,25.10
2018-12-29T16:06:42.936Z,25.90
2018-12-29T16:09:11.550Z,23.40
2018-12-29T16:11:40.320Z,24.52
2018-12-29T16:14:08.743Z,26.82
2018-12-29T16:16:38.310Z,24.18
2018-12-29T16:19:07.038Z,24.70
2018-12-29T16:21:37.275Z,26.80
2018-12-29T16:24:06.110Z,25.37
2018-12-29T16:26:34.824Z,30.55
2018-12-29T16:29:03.428Z,33.55
2018-12-29T16:31:31.918Z,32.75
2018-12-29T16:34:00.548Z,32.38
2018-12-29T16:36:29.837Z,30.30
2018-12-29T16:38:58.480Z,32.70
2018-12-29T16:41:27.167Z,30.75
2018-12-29T16:43:56.125Z,30.92
2018-12-29T16:46:24.725Z,28.70
2018-12-29T16:48:53.347Z,28.87
2018-12-29T16:51:21.753Z,27.87
2018-12-29T16:53:50.539Z,27.07
2018-12-29T16:56:18.904Z,28.55
2018-12-29T16:58:47.597Z,29.65
2018-12-29T17:01:16.399Z,30.62
2018-12-29T17:03:45.469Z,30.52
2018-12-29T17:06:13.908Z,29.85
2018-12-29T17:08:42.255Z,31.02
2018-12-29T17:11:10.610Z,30.48
2018-12-29T17:13:39.567Z,37.53
2018-12-29T17:16:08.011Z,32.93
2018-12-29T17:18:36.459Z,30.48
2018-12-29T17:21:05.208Z,30.17
2018-12-29T17:23:33.770Z,30.57
2018-12-29T17:26:02.209Z,30.23
2018-12-29T17:28:30.866Z,28.80
2018-12-29T17:30:59.217Z,30.05
2018-12-29T17:33:27.619Z,29.80
2018-12-29T17:35:55.972Z,29.30
2018-12-29T17:38:24.510Z,30.72
2018-12-29T17:40:52.956Z,32.00
2018-12-29T17:43:21.419Z,30.92
2018-12-29T17:45:49.896Z,29.92
2018-12-29T17:48:18.386Z,32.25
2018-12-29T17:50:47.771Z,33.45
2018-12-29T17:53:16.736Z,32.70
2018-12-29T17:55:45.188Z,34.25
2018-12-29T17:58:13.543Z,36.45
2018-12-29T18:00:42.017Z,33.42
2018-12-29T18:03:10.643Z,33.15
2018-12-29T18:05:39.209Z,34.25
2018-12-29T18:08:07.545Z,33.75
2018-12-29T18:10:36.237Z,35.10
2018-12-29T18:13:04.779Z,34.48
2018-12-29T18:15:35.040Z,35.33
2018-12-29T18:18:03.500Z,36.42
2018-12-29T18:20:31.973Z,33.25
2018-12-29T18:23:00.357Z,36.00
2018-12-29T18:25:28.907Z,34.73
2018-12-29T18:27:57.481Z,36.03
2018-12-29T18:30:26.282Z,36.50
2018-12-29T18:32:54.757Z,35.73
2018-12-29T18:35:23.519Z,41.58
2018-12-29T18:37:51.920Z,40.35
2018-12-29T18:40:20.292Z,37.23
2018-12-29T18:42:49.085Z,38.60
2018-12-29T18:45:17.546Z,38.45
2018-12-29T18:47:46.283Z,35.28
2018-12-29T18:50:16.553Z,35.73
2018-12-29T18:52:45.057Z,34.30
2018-12-29T18:55:16.036Z,32.83
2018-12-29T18:57:46.367Z,34.13
2018-12-29T19:00:15.282Z,30.80
2018-12-29T19:02:44.175Z,34.10
2018-12-29T19:05:12.964Z,30.37
2018-12-29T19:07:43.229Z,31.73
2018-12-29T19:10:14.369Z,30.90
2018-12-29T19:12:44.082Z,31.35
2018-12-29T19:15:12.879Z,30.45
2018-12-29T19:17:41.522Z,32.73
2018-12-29T19:20:11.705Z,32.60
2018-12-29T19:22:40.161Z,32.63
2018-12-29T19:25:08.755Z,32.00
2018-12-29T19:27:37.235Z,32.23
2018-12-29T19:30:06.044Z,30.92
2018-12-29T19:32:35.701Z,30.37
2018-12-29T19:35:07.333Z,34.53
2018-12-29T19:37:35.778Z,34.90
2018-12-29T19:40:06.034Z,35.92
2018-12-29T19:42:34.819Z,36.73
2018-12-29T19:45:04.914Z,34.92
2018-12-29T19:47:33.532Z,33.40
2018-12-29T19:50:02.376Z,35.48
2018-12-29T19:52:30.857Z,37.30
2018-12-29T19:54:59.292Z,37.50
2018-12-29T19:57:28.136Z,37.05
2018-12-29T19:59:56.480Z,34.30
2018-12-29T20:02:25.199Z,36.28
2018-12-29T20:04:54.117Z,36.33
2018-12-29T20:07:25.577Z,35.98
2018-12-29T20:09:55.708Z,37.30
2018-12-29T20:12:24.645Z,35.95
2018-12-29T20:14:55.737Z,38.23
2018-12-29T20:17:24.085Z,38.50
2018-12-29T20:19:52.976Z,34.45
2018-12-29T20:22:21.744Z,34.58
2018-12-29T20:24:51.315Z,34.08
2018-12-29T20:27:21.447Z,35.65
2018-12-29T20:29:51.599Z,36.25
2018-12-29T20:32:21.223Z,33.38
2018-12-29T20:34:49.674Z,32.55
2018-12-29T20:37:18.310Z,43.08
2018-12-29T20:39:48.439Z,48.45
2018-12-29T20:42:16.840Z,43.10
2018-12-29T20:44:45.583Z,39.40
2018-12-29T20:47:14.032Z,37.75
2018-12-29T20:49:42.892Z,37.78
2018-12-29T20:52:12.117Z,36.00
2018-12-29T20:54:42.239Z,39.35
2018-12-29T20:57:11.188Z,35.05
2018-12-29T20:59:39.520Z,36.60
2018-12-29T21:02:07.989Z,36.13
2018-12-29T21:04:36.342Z,36.42
2018-12-29T21:07:04.692Z,37.15
2018-12-29T21:09:33.175Z,38.55
2018-12-29T21:12:01.759Z,40.40
2018-12-29T21:14:30.245Z,39.95
2018-12-29T21:16:58.678Z,41.92
2018-12-29T21:19:27.074Z,41.73
2018-12-29T21:21:58.284Z,41.25
2018-12-29T21:24:27.603Z,39.88
2018-12-29T21:26:55.933Z,39.45
2018-12-29T21:29:24.467Z,44.67
2018-12-29T21:31:53.011Z,42.30
2018-12-29T21:34:21.446Z,40.83
2018-12-29T21:36:49.919Z,41.00
2018-12-29T21:39:18.512Z,42.60
2018-12-29T21:41:46.952Z,42.05
2018-12-29T21:44:15.376Z,41.15
2018-12-29T21:46:43.826Z,39.95
2018-12-29T21:49:12.351Z,39.63
2018-12-29T21:51:40.691Z,38.55
2018-12-29T21:54:09.036Z,37.83
2018-12-29T21:56:37.367Z,39.20
2018-12-29T21:59:08.607Z,41.55
2018-12-29T22:01:37.375Z,38.28
2018-12-29T22:04:05.818Z,36.53
2018-12-29T22:06:35.539Z,37.55
2018-12-29T22:09:05.692Z,36.93
2018-12-29T22:11:34.437Z,38.30
2018-12-29T22:14:02.952Z,38.63
2018-12-29T22:16:31.291Z,37.60
2018-12-29T22:19:00.019Z,35.75
2018-12-29T22:21:28.363Z,37.70
2018-12-29T22:23:56.725Z,35.55
2018-12-29T22:26:25.079Z,34.80
2018-12-29T22:28:53.511Z,38.73
2018-12-29T22:31:21.848Z,38.17
2018-12-29T22:33:50.653Z,38.48
2018-12-29T22:36:19.196Z,37.40
2018-12-29T22:38:47.526Z,37.03
2018-12-29T22:41:15.958Z,36.45
2018-12-29T22:43:44.482Z,36.90
2018-12-29T22:46:13.180Z,38.33
2018-12-29T22:48:41.560Z,39.13
2018-12-29T22:51:09.988Z,38.10
2018-12-29T22:53:38.436Z,37.80
2018-12-29T22:56:06.958Z,36.85
2018-12-29T22:58:35.411Z,36.38
2018-12-29T23:01:05.773Z,37.58
2018-12-29T23:03:34.425Z,36.83
2018-12-29T23:06:02.757Z,39.20
2018-12-29T23:08:31.188Z,37.08
2018-12-29T23:10:59.837Z,36.83
2018-12-29T23:13:28.326Z,34.98
2018-12-29T23:15:57.669Z,34.60
2018-12-29T23:18:26.122Z,36.03
2018-12-29T23:20:54.667Z,31.30
2018-12-29T23:23:23.067Z,27.30
2018-12-29T23:25:51.678Z,28.27
2018-12-29T23:28:20.021Z,24.77
2018-12-29T23:30:50.149Z,23.70
2018-12-29T23:33:18.547Z,30.50
2018-12-29T23:35:46.992Z,30.23
2018-12-29T23:38:15.421Z,31.77
2018-12-29T23:40:44.649Z,35.25
2018-12-29T23:43:13.071Z,31.57
2018-12-29T23:45:41.595Z,34.18
2018-12-29T23:48:10.031Z,35.63
2018-12-29T23:50:38.374Z,34.70
2018-12-29T23:53:08.232Z,34.65
2018-12-29T23:55:36.960Z,35.13
2018-12-29T23:58:05.410Z,36.25
